Terminal Aerodrome Forecast
Issued by NWS

Home | Current Version | Previous Version | Text Only | Print | Product List | Glossary On
Versions: 1 2 3 4 5 6 7 8 9 10 11 12 13 14
000
FTUS45 KVEF 261100
TAFBIH
TAF
KBIH 261120Z 2612/2712 34008KT P6SM FEW250
     FM261600 VRB05KT P6SM SCT200
     FM262000 17007KT P6SM BKN150 OVC200
     FM270000 17007KT P6SM VCSH BKN050 OVC060
     FM270300 18006KT 5SM -RA BKN020 OVC030=

USA.gov is the U.S. government's official web portal to all federal, state and local government web resources and services.